createdAt,value
2016-11-09T00:01:20.396Z,4.49
2016-11-09T00:03:18.534Z,4.55
2016-11-09T00:04:47.051Z,4.58
2016-11-09T00:06:00.926Z,4.62
2016-11-09T00:07:30.235Z,4.66
2016-11-09T00:08:59.029Z,4.68
2016-11-09T00:10:12.928Z,4.7
2016-11-09T00:12:11.236Z,4.74
2016-11-09T00:13:26.447Z,4.76
2016-11-09T00:18:52.307Z,4.87
2016-11-09T00:20:06.516Z,4.88
2016-11-09T00:21:35.587Z,4.92
2016-11-09T00:23:03.996Z,4.94
2016-11-09T00:27:00.838Z,5.01
2016-11-09T00:30:57.537Z,5.02
2016-11-09T00:32:26.626Z,5.05
2016-11-09T00:34:10.351Z,5.07
2016-11-09T00:36:23.414Z,5.08
2016-11-09T00:37:52.657Z,5.07
2016-11-09T00:45:31.616Z,5.15
2016-11-09T00:47:15.647Z,5.16
2016-11-09T00:51:12.300Z,5.14
2016-11-09T00:55:39.439Z,5.12
2016-11-09T00:57:23.172Z,5.13
2016-11-09T00:59:21.939Z,5.11
2016-11-09T01:00:35.758Z,5.09
2016-11-09T01:02:04.383Z,5.07
2016-11-09T01:05:31.299Z,5.02
2016-11-09T01:10:27.710Z,4.87
2016-11-09T01:14:26.951Z,4.77
2016-11-09T01:16:39.874Z,4.74
2016-11-09T01:19:37.489Z,4.69
2016-11-09T01:23:19.688Z,4.62
2016-11-09T01:24:48.438Z,4.61
2016-11-09T01:26:46.923Z,4.63
2016-11-09T01:30:14.235Z,4.69
2016-11-09T01:32:12.779Z,4.75
2016-11-09T01:33:56.723Z,4.77
2016-11-09T01:36:54.003Z,4.89
2016-11-09T01:38:37.376Z,4.92
2016-11-09T01:40:36.096Z,4.95
2016-11-09T01:41:49.929Z,4.97
2016-11-09T01:43:18.524Z,4.99
2016-11-09T01:45:16.669Z,5.03
2016-11-09T01:47:30.249Z,5.07
2016-11-09T01:51:41.574Z,5.13
2016-11-09T01:53:24.999Z,5.14
2016-11-09T01:54:54.173Z,5.17
2016-11-09T02:01:33.876Z,5.26
2016-11-09T02:05:59.991Z,5.26
2016-11-09T02:09:42.046Z,5.27
2016-11-09T02:11:10.624Z,5.27
2016-11-09T02:12:24.442Z,5.26
2016-11-09T02:14:08.311Z,5.23
2016-11-09T02:15:21.959Z,5.21
2016-11-09T02:16:35.743Z,5.2
2016-11-09T02:17:49.438Z,5.18
2016-11-09T02:19:03.325Z,5.18
2016-11-09T02:20:17.650Z,5.21
2016-11-09T02:21:46.546Z,5.23
2016-11-09T02:23:15.161Z,5.25
2016-11-09T02:24:28.701Z,5.25
2016-11-09T02:37:03.315Z,5.39
2016-11-09T02:38:32.051Z,5.41
2016-11-09T02:40:16.014Z,5.43
2016-11-09T02:43:57.656Z,5.48
2016-11-09T02:46:55.724Z,5.52
2016-11-09T02:48:09.439Z,5.54
2016-11-09T02:50:37.096Z,5.55
2016-11-09T02:52:49.923Z,5.55
2016-11-09T02:55:47.584Z,5.53
2016-11-09T02:57:01.556Z,5.51
2016-11-09T02:58:45.228Z,5.46
2016-11-09T03:04:13.199Z,5.11
2016-11-09T03:05:27.338Z,5.09
2016-11-09T03:08:39.954Z,5.12
2016-11-09T03:10:08.954Z,5.12
2016-11-09T03:11:23.147Z,5.13
2016-11-09T03:13:07.474Z,5.15
2016-11-09T03:14:21.351Z,5.14
2016-11-09T03:15:49.985Z,5.17
2016-11-09T03:17:18.843Z,5.17
2016-11-09T03:19:03.027Z,5.21
2016-11-09T03:20:16.754Z,5.23
2016-11-09T03:21:30.849Z,5.23
2016-11-09T03:22:45.335Z,5.22
2016-11-09T03:28:11.005Z,5.21
2016-11-09T03:29:24.934Z,5.22
2016-11-09T03:30:38.764Z,5.22
2016-11-09T03:31:52.845Z,5.23
2016-11-09T03:33:06.677Z,5.26
2016-11-09T03:34:20.759Z,5.27
2016-11-09T03:35:34.852Z,5.28
2016-11-09T03:36:48.711Z,5.29
2016-11-09T03:38:02.922Z,5.25
2016-11-09T03:39:16.573Z,5.2
2016-11-09T03:40:30.337Z,5.18
2016-11-09T03:41:44.343Z,5.17
2016-11-09T03:42:58.040Z,5.16
2016-11-09T03:44:12.154Z,5.17
2016-11-09T03:45:25.982Z,5.17
2016-11-09T03:46:39.826Z,5.17
2016-11-09T03:47:53.657Z,5.18
2016-11-09T03:51:20.379Z,5.21
2016-11-09T03:52:34.184Z,5.21
2016-11-09T03:54:02.872Z,5.22
2016-11-09T03:55:16.483Z,5.24
2016-11-09T03:58:58.699Z,5.23
2016-11-09T04:00:12.697Z,5.22
2016-11-09T04:01:41.236Z,5.23
2016-11-09T04:03:09.650Z,5.19
2016-11-09T04:04:53.231Z,5.12
2016-11-09T04:06:07.548Z,5.1
2016-11-09T04:09:04.525Z,5.01
2016-11-09T04:11:47.241Z,4.99
2016-11-09T04:13:01.080Z,4.97
2016-11-09T04:14:29.888Z,4.94
2016-11-09T04:15:58.628Z,4.91
2016-11-09T04:17:27.163Z,4.91
2016-11-09T04:18:55.475Z,4.93
2016-11-09T04:21:08.422Z,5
2016-11-09T04:23:21.932Z,4.99
2016-11-09T04:25:05.449Z,4.99
2016-11-09T04:26:48.623Z,5.02
2016-11-09T04:28:17.317Z,5.05
2016-11-09T04:31:59.643Z,5.16
2016-11-09T04:33:44.949Z,5.17
2016-11-09T04:34:58.721Z,5.18
2016-11-09T04:36:12.579Z,5.2
2016-11-09T04:37:26.284Z,5.2
2016-11-09T04:38:40.220Z,5.21
2016-11-09T04:39:53.719Z,5.22
2016-11-09T04:41:07.489Z,5.25
2016-11-09T04:42:21.840Z,5.29
2016-11-09T04:43:50.441Z,5.34
2016-11-09T04:45:04.294Z,5.36
2016-11-09T04:46:18.541Z,5.4
2016-11-09T04:47:47.031Z,5.42
2016-11-09T04:49:01.035Z,5.44
2016-11-09T04:50:14.517Z,5.43
2016-11-09T04:51:28.914Z,5.43
2016-11-09T04:52:42.781Z,5.43
2016-11-09T04:53:56.932Z,5.46
2016-11-09T04:55:10.633Z,5.43
2016-11-09T04:56:24.258Z,5.42
2016-11-09T04:57:38.266Z,5.38
2016-11-09T04:58:51.873Z,5.36
2016-11-09T05:00:06.079Z,5.35
2016-11-09T05:01:19.758Z,5.35
2016-11-09T05:02:33.427Z,5.36
2016-11-09T05:03:47.599Z,5.36
2016-11-09T05:05:16.083Z,5.4
2016-11-09T05:06:30.003Z,5.42
2016-11-09T05:07:43.770Z,5.43
2016-11-09T05:08:57.673Z,5.41
2016-11-09T05:10:11.760Z,5.37
2016-11-09T05:11:40.239Z,5.39
2016-11-09T05:13:09.044Z,5.37
2016-11-09T05:14:22.824Z,5.38
2016-11-09T05:15:37.175Z,5.38
2016-11-09T05:19:19.262Z,5.39
2016-11-09T05:20:33.357Z,5.38
2016-11-09T05:21:47.859Z,5.4
2016-11-09T05:23:01.488Z,5.4
2016-11-09T05:24:14.953Z,5.39
2016-11-09T05:25:28.869Z,5.39
2016-11-09T05:26:58.005Z,5.38
2016-11-09T05:28:41.938Z,5.36
2016-11-09T05:29:55.669Z,5.36
2016-11-09T05:31:09.434Z,5.4
2016-11-09T05:32:23.573Z,5.48
2016-11-09T05:33:37.421Z,5.56
2016-11-09T05:34:51.271Z,5.58
2016-11-09T05:36:05.086Z,5.58
2016-11-09T05:37:19.007Z,5.58
2016-11-09T05:38:32.869Z,5.56
2016-11-09T05:39:46.878Z,5.52
2016-11-09T05:41:00.598Z,5.46
2016-11-09T05:42:14.448Z,5.38
2016-11-09T05:43:28.462Z,5.31
2016-11-09T05:44:42.266Z,5.25
2016-11-09T05:45:56.184Z,5.2
2016-11-09T05:47:09.926Z,5.15
2016-11-09T05:48:24.125Z,5.11
2016-11-09T05:49:37.976Z,5.08
2016-11-09T05:50:52.042Z,5.05
2016-11-09T05:52:05.885Z,5.04
2016-11-09T05:53:22.139Z,5.02
2016-11-09T05:54:36.172Z,5.02
2016-11-09T05:55:49.819Z,4.98
2016-11-09T05:57:03.883Z,4.94
2016-11-09T05:58:18.381Z,4.91
2016-11-09T05:59:32.279Z,4.9
2016-11-09T06:00:46.126Z,4.9
2016-11-09T06:02:00.060Z,4.93
2016-11-09T06:03:13.925Z,4.96
2016-11-09T06:04:28.081Z,4.97
2016-11-09T06:05:56.715Z,4.99
2016-11-09T06:08:24.712Z,4.97
2016-11-09T06:09:38.473Z,4.96
2016-11-09T06:12:50.261Z,4.88
2016-11-09T06:15:33.351Z,4.9
2016-11-09T06:16:47.161Z,4.93
2016-11-09T06:19:29.890Z,4.95
2016-11-09T06:20:44.129Z,4.96
2016-11-09T06:22:12.719Z,4.95
2016-11-09T06:24:10.966Z,4.96
2016-11-09T06:25:39.885Z,4.94
2016-11-09T06:29:07.137Z,4.96
2016-11-09T06:30:21.190Z,4.98
2016-11-09T06:31:49.791Z,5.01
2016-11-09T06:33:04.119Z,5.02
2016-11-09T06:34:17.995Z,5.02
2016-11-09T06:36:01.622Z,5.02
2016-11-09T06:37:15.456Z,5.01
2016-11-09T06:40:12.961Z,5
2016-11-09T06:42:56.266Z,5.04
2016-11-09T06:44:40.111Z,5.06
2016-11-09T06:46:08.710Z,5.1
2016-11-09T06:47:22.490Z,5.12
2016-11-09T06:48:36.749Z,5.1
2016-11-09T06:49:50.637Z,5.09
2016-11-09T06:51:04.490Z,5.07
2016-11-09T06:52:18.375Z,5.05
2016-11-09T06:53:32.111Z,5.04
2016-11-09T06:54:46.291Z,5.01
2016-11-09T06:56:00.346Z,4.98
2016-11-09T06:57:13.981Z,4.93
2016-11-09T06:58:27.642Z,4.92
2016-11-09T06:59:56.172Z,4.88
2016-11-09T07:01:10.987Z,4.88
2016-11-09T07:02:25.178Z,4.84
2016-11-09T07:03:38.796Z,4.84
2016-11-09T07:04:52.651Z,4.85
2016-11-09T07:06:06.377Z,4.87
2016-11-09T07:07:20.613Z,4.87
2016-11-09T07:08:34.659Z,4.89
2016-11-09T07:09:48.478Z,4.88
2016-11-09T07:11:02.191Z,4.88
2016-11-09T07:12:15.925Z,4.87
2016-11-09T07:13:44.851Z,4.86
2016-11-09T07:14:59.230Z,4.82
2016-11-09T07:16:13.198Z,4.79
2016-11-09T07:17:29.312Z,4.75
2016-11-09T07:18:42.992Z,4.74
2016-11-09T07:19:57.271Z,4.71
2016-11-09T07:21:10.975Z,4.71
2016-11-09T07:22:25.004Z,4.71
2016-11-09T07:23:39.139Z,4.72
2016-11-09T07:24:52.938Z,4.73
2016-11-09T07:26:06.967Z,4.76
2016-11-09T07:27:20.652Z,4.76
2016-11-09T07:28:34.838Z,4.73
2016-11-09T07:29:48.528Z,4.71
2016-11-09T07:31:02.718Z,4.73
2016-11-09T07:32:16.537Z,4.73
2016-11-09T07:33:30.281Z,4.75
2016-11-09T07:34:44.294Z,4.8
2016-11-09T07:35:58.041Z,4.81
2016-11-09T07:37:11.886Z,4.82
2016-11-09T07:38:26.357Z,4.84
2016-11-09T07:39:40.276Z,4.87
2016-11-09T07:40:54.602Z,4.89
2016-11-09T07:42:08.436Z,4.88
2016-11-09T07:43:22.596Z,4.9
2016-11-09T07:44:36.342Z,4.89
2016-11-09T07:45:50.548Z,4.89
2016-11-09T07:47:04.329Z,4.89
2016-11-09T07:48:18.878Z,4.88
2016-11-09T07:49:32.636Z,4.86
2016-11-09T07:50:46.955Z,4.85
2016-11-09T07:52:00.613Z,4.85
2016-11-09T07:53:14.895Z,4.84
2016-11-09T07:54:28.964Z,4.82
2016-11-09T07:55:42.855Z,4.81
2016-11-09T07:56:58.494Z,4.8
2016-11-09T07:58:12.719Z,4.78
2016-11-09T07:59:26.385Z,4.75
2016-11-09T08:00:40.012Z,4.76
2016-11-09T08:02:08.705Z,4.76
2016-11-09T08:03:22.680Z,4.75
2016-11-09T08:04:36.835Z,4.75
2016-11-09T08:05:50.385Z,4.75
2016-11-09T08:07:04.160Z,4.76
2016-11-09T08:08:17.879Z,4.77
2016-11-09T08:09:32.513Z,4.77
2016-11-09T08:10:46.083Z,4.77
2016-11-09T08:11:59.888Z,4.78
2016-11-09T08:13:14.008Z,4.78
2016-11-09T08:14:27.574Z,4.81
2016-11-09T08:15:41.450Z,4.82
2016-11-09T08:16:55.414Z,4.82
2016-11-09T08:18:09.189Z,4.83
2016-11-09T08:19:22.979Z,4.85
2016-11-09T08:20:36.525Z,4.85
2016-11-09T08:21:50.330Z,4.88
2016-11-09T08:23:04.433Z,4.86
2016-11-09T08:24:18.093Z,4.88
2016-11-09T08:25:31.755Z,4.88
2016-11-09T08:26:45.485Z,4.89
2016-11-09T08:27:59.374Z,4.9
2016-11-09T08:29:13.966Z,4.93
2016-11-09T08:30:27.960Z,4.98
2016-11-09T08:31:41.668Z,5.02
2016-11-09T08:32:55.319Z,5.07
2016-11-09T08:34:11.421Z,5.11
2016-11-09T08:35:25.289Z,5.15
2016-11-09T08:36:38.895Z,5.19
2016-11-09T08:37:52.895Z,5.21
2016-11-09T08:39:06.817Z,5.23
2016-11-09T08:40:20.718Z,5.25
2016-11-09T08:41:34.227Z,5.26
2016-11-09T08:42:47.817Z,5.27
2016-11-09T08:44:02.260Z,5.29
2016-11-09T08:45:16.081Z,5.33
2016-11-09T08:46:30.156Z,5.36
2016-11-09T08:47:44.172Z,5.39
2016-11-09T08:48:57.933Z,5.41
2016-11-09T08:50:11.673Z,5.41
2016-11-09T08:51:25.399Z,5.42
2016-11-09T08:52:39.462Z,5.46
2016-11-09T08:53:53.381Z,5.51
2016-11-09T08:55:07.006Z,5.56
2016-11-09T08:56:21.291Z,5.59
2016-11-09T08:57:35.536Z,5.63
2016-11-09T08:58:50.832Z,5.66
2016-11-09T09:00:05.096Z,5.69
2016-11-09T09:01:33.703Z,5.73
2016-11-09T09:02:48.590Z,5.77
2016-11-09T09:04:32.078Z,5.82
2016-11-09T09:08:28.665Z,5.94
2016-11-09T09:11:41.563Z,6.05
2016-11-09T09:14:39.499Z,6.09
2016-11-09T09:16:22.868Z,6.1
2016-11-09T09:20:19.500Z,6.18
2016-11-09T09:21:48.562Z,6.26
2016-11-09T09:23:02.572Z,6.31
2016-11-09T09:25:00.773Z,6.39
2016-11-09T09:26:29.327Z,6.46
2016-11-09T09:27:58.200Z,6.55
2016-11-09T09:29:12.298Z,6.62
2016-11-09T09:30:41.338Z,6.69
2016-11-09T09:31:55.251Z,6.74
2016-11-09T09:35:22.542Z,6.8
2016-11-09T09:38:49.588Z,6.88
2016-11-09T09:40:03.292Z,6.91
2016-11-09T09:41:31.891Z,6.95
2016-11-09T09:42:46.370Z,7
2016-11-09T09:44:00.151Z,7.05
2016-11-09T09:45:13.700Z,7.1
2016-11-09T09:46:42.324Z,7.16
2016-11-09T09:47:56.454Z,7.18
2016-11-09T09:49:10.550Z,7.22
2016-11-09T09:50:24.369Z,7.24
2016-11-09T09:52:22.543Z,7.25
2016-11-09T09:54:07.135Z,7.25
2016-11-09T09:55:21.669Z,7.27
2016-11-09T09:58:19.429Z,7.38
2016-11-09T10:04:32.275Z,7.59
2016-11-09T10:05:45.990Z,7.58
2016-11-09T10:07:14.788Z,7.58
2016-11-09T10:08:44.239Z,7.58
2016-11-09T10:12:11.710Z,7.6
2016-11-09T10:14:10.549Z,7.59
2016-11-09T10:18:07.199Z,7.52
2016-11-09T10:22:03.818Z,7.59
2016-11-09T10:23:47.351Z,7.64
2016-11-09T10:25:15.910Z,7.67
2016-11-09T10:26:44.783Z,7.71
2016-11-09T10:28:13.718Z,7.71
2016-11-09T10:34:53.149Z,7.69
2016-11-09T10:36:22.010Z,7.7
2016-11-09T10:40:18.687Z,7.88
2016-11-09T10:41:33.658Z,7.91
2016-11-09T10:42:47.491Z,7.94
2016-11-09T10:44:45.924Z,7.94
2016-11-09T10:48:42.744Z,8.01
2016-11-09T10:50:11.442Z,8.02
2016-11-09T10:51:25.512Z,8.03
2016-11-09T10:52:39.002Z,8.05
2016-11-09T10:54:07.508Z,8.08
2016-11-09T10:56:35.788Z,8.1
2016-11-09T10:58:49.005Z,8.12
2016-11-09T11:00:02.662Z,8.07
2016-11-09T11:01:17.205Z,8.06
2016-11-09T11:04:00.809Z,8.07
2016-11-09T11:05:15.094Z,8.1
2016-11-09T11:06:28.849Z,8.14
2016-11-09T11:07:43.088Z,8.2
2016-11-09T11:09:11.666Z,8.24
2016-11-09T11:10:40.477Z,8.27
2016-11-09T11:12:09.453Z,8.28
2016-11-09T11:15:22.097Z,8.33
2016-11-09T11:16:35.726Z,8.34
2016-11-09T11:18:04.556Z,8.34
2016-11-09T11:19:18.604Z,8.34
2016-11-09T11:20:32.383Z,8.33
2016-11-09T11:22:16.053Z,8.33
2016-11-09T11:23:30.086Z,8.33
2016-11-09T11:24:43.737Z,8.35
2016-11-09T11:25:57.560Z,8.38
2016-11-09T11:27:11.106Z,8.42
2016-11-09T11:28:24.888Z,8.44
2016-11-09T11:29:39.537Z,8.45
2016-11-09T11:31:08.387Z,8.49
2016-11-09T11:32:51.563Z,8.55
2016-11-09T11:37:18.446Z,8.53
2016-11-09T11:49:55.132Z,8.32
2016-11-09T11:51:23.785Z,8.32
2016-11-09T11:52:37.690Z,8.3
2016-11-09T11:53:51.503Z,8.21
2016-11-09T11:55:05.964Z,8.15
2016-11-09T12:01:01.081Z,8.1
2016-11-09T12:06:57.205Z,8.12
2016-11-09T12:11:08.345Z,8.05
2016-11-09T12:13:07.473Z,8.04
2016-11-09T12:14:36.075Z,8.03
2016-11-09T12:18:32.220Z,8.14
2016-11-09T12:20:16.330Z,8.14
2016-11-09T12:21:44.918Z,8.12
2016-11-09T12:23:13.601Z,8.11
2016-11-09T12:28:39.226Z,8.24
2016-11-09T12:29:52.953Z,8.25
2016-11-09T12:31:51.729Z,8.28
2016-11-09T12:34:19.490Z,8.31
2016-11-09T12:35:48.098Z,8.33
2016-11-09T12:37:01.947Z,8.32
2016-11-09T12:39:00.704Z,8.3
2016-11-09T12:40:15.131Z,8.3
2016-11-09T12:46:39.612Z,8.48
2016-11-09T12:47:53.588Z,8.53
2016-11-09T12:49:22.265Z,8.58
2016-11-09T12:53:04.208Z,8.58
2016-11-09T12:57:15.668Z,8.58
2016-11-09T13:00:29.391Z,8.58
2016-11-09T13:02:12.975Z,8.59
2016-11-09T13:05:40.861Z,8.51
2016-11-09T13:07:53.751Z,8.44
2016-11-09T13:16:31.592Z,8.27
2016-11-09T13:17:45.382Z,8.25
2016-11-09T13:19:58.314Z,8.26
2016-11-09T13:21:26.965Z,8.3
2016-11-09T13:22:40.690Z,8.33
2016-11-09T13:23:54.427Z,8.35
2016-11-09T13:26:51.856Z,8.39
2016-11-09T13:28:50.218Z,8.39
2016-11-09T13:30:04.301Z,8.37
2016-11-09T13:32:02.812Z,8.33
2016-11-09T13:33:31.369Z,8.35
2016-11-09T13:35:02.356Z,8.35
2016-11-09T13:36:32.138Z,8.32
2016-11-09T13:38:01.089Z,8.3
2016-11-09T13:39:29.973Z,8.24
2016-11-09T13:40:43.872Z,8.22
2016-11-09T13:41:58.546Z,8.19
2016-11-09T13:43:27.061Z,8.17
2016-11-09T13:45:25.489Z,8.11
2016-11-09T13:53:04.472Z,8.13
2016-11-09T13:54:47.886Z,8.1
2016-11-09T13:56:01.728Z,8.06
2016-11-09T13:57:45.501Z,8.02
2016-11-09T14:01:41.638Z,7.91
2016-11-09T14:03:10.585Z,7.89
2016-11-09T14:04:24.677Z,7.88
2016-11-09T14:10:34.355Z,7.88
2016-11-09T14:15:00.447Z,7.86
2016-11-09T14:16:29.718Z,7.85
2016-11-09T14:17:43.507Z,7.89
2016-11-09T14:18:57.663Z,7.9
2016-11-09T14:20:26.273Z,7.88
2016-11-09T14:21:40.146Z,7.89
2016-11-09T14:22:54.771Z,7.89
2016-11-09T14:24:38.266Z,7.89
2016-11-09T14:26:06.872Z,7.88
2016-11-09T14:27:20.444Z,7.85
2016-11-09T14:28:34.704Z,7.83
2016-11-09T14:30:03.194Z,7.78
2016-11-09T14:31:16.980Z,7.78
2016-11-09T14:32:45.784Z,7.77
2016-11-09T14:34:00.050Z,7.78
2016-11-09T14:35:43.488Z,7.76
2016-11-09T14:37:12.630Z,7.72
2016-11-09T14:38:26.500Z,7.72
2016-11-09T14:39:40.563Z,7.73
2016-11-09T14:40:54.562Z,7.74
2016-11-09T14:42:08.152Z,7.73
2016-11-09T14:43:21.967Z,7.71
2016-11-09T14:47:18.949Z,7.61
2016-11-09T14:48:33.022Z,7.58
2016-11-09T14:50:01.629Z,7.55
2016-11-09T14:53:58.673Z,7.53
2016-11-09T14:55:42.219Z,7.52
2016-11-09T14:57:10.754Z,7.49
2016-11-09T15:00:38.418Z,7.47
2016-11-09T15:02:51.769Z,7.44
2016-11-09T15:07:18.095Z,7.45
2016-11-09T15:08:31.623Z,7.44
2016-11-09T15:09:45.209Z,7.46
2016-11-09T15:10:58.956Z,7.46
2016-11-09T15:12:15.176Z,7.46
2016-11-09T15:15:57.062Z,7.44
2016-11-09T15:17:11.203Z,7.43
2016-11-09T15:21:07.730Z,7.35
2016-11-09T15:22:36.741Z,7.32
2016-11-09T15:23:50.889Z,7.33
2016-11-09T15:27:32.454Z,7.33
2016-11-09T15:29:16.234Z,7.34
2016-11-09T15:30:44.872Z,7.31
2016-11-09T15:36:00.194Z,7.19
2016-11-09T15:37:18.426Z,7.19
2016-11-09T15:40:30.494Z,7.21
2016-11-09T15:41:49.825Z,7.18
2016-11-09T15:43:58.905Z,7.17
2016-11-09T15:47:42.073Z,7.14
2016-11-09T15:48:55.964Z,7.15
2016-11-09T15:50:40.487Z,7.19
2016-11-09T15:56:37.084Z,7.26
2016-11-09T16:01:48.192Z,6.99
2016-11-09T16:09:12.257Z,6.86
2016-11-09T16:10:26.141Z,6.87
2016-11-09T16:11:40.494Z,6.85
2016-11-09T16:13:24.391Z,6.85
2016-11-09T16:14:52.809Z,6.84
2016-11-09T16:16:06.953Z,6.81
2016-11-09T16:18:05.177Z,6.78
2016-11-09T16:19:48.558Z,6.79
2016-11-09T16:29:40.072Z,6.86
2016-11-09T16:35:34.982Z,6.82
2016-11-09T16:36:48.745Z,6.84
2016-11-09T16:38:03.000Z,6.87
2016-11-09T16:39:31.395Z,6.86
2016-11-09T16:40:45.262Z,6.84
2016-11-09T16:41:59.311Z,6.81
2016-11-09T16:43:28.211Z,6.79
2016-11-09T16:46:55.267Z,6.78
2016-11-09T16:53:04.985Z,6.76
2016-11-09T16:54:33.325Z,6.73
2016-11-09T16:55:47.073Z,6.73
2016-11-09T16:57:30.955Z,6.7
2016-11-09T16:59:16.700Z,6.67
2016-11-09T17:01:29.607Z,6.66
2016-11-09T17:05:41.333Z,6.67
2016-11-09T17:07:40.023Z,6.66
2016-11-09T17:09:09.059Z,6.64
2016-11-09T17:12:20.999Z,6.63
2016-11-09T17:13:34.844Z,6.61
2016-11-09T17:15:03.863Z,6.59
2016-11-09T17:16:32.984Z,6.56
2016-11-09T17:20:14.525Z,6.56
2016-11-09T17:23:42.015Z,6.62
2016-11-09T17:25:54.952Z,6.65
2016-11-09T17:28:07.945Z,6.63
2016-11-09T17:31:41.622Z,6.62
2016-11-09T17:32:56.529Z,6.61
2016-11-09T17:34:25.161Z,6.6
2016-11-09T17:36:23.477Z,6.58
2016-11-09T17:38:22.253Z,6.56
2016-11-09T17:39:36.111Z,6.55
2016-11-09T17:40:49.812Z,6.55
2016-11-09T17:42:18.513Z,6.55
2016-11-09T17:44:46.326Z,6.56
2016-11-09T17:46:15.397Z,6.57
2016-11-09T17:47:59.339Z,6.56
2016-11-09T17:49:13.045Z,6.56
2016-11-09T17:52:40.322Z,6.5
2016-11-09T17:55:37.818Z,6.49
2016-11-09T17:59:20.100Z,6.46
2016-11-09T18:08:42.717Z,6.47
2016-11-09T18:10:26.141Z,6.5
2016-11-09T18:12:09.666Z,6.53
2016-11-09T18:18:34.518Z,6.61
2016-11-09T18:20:47.667Z,6.62
2016-11-09T18:23:16.111Z,6.62
2016-11-09T18:25:14.507Z,6.6
2016-11-09T18:26:42.842Z,6.62
2016-11-09T18:30:10.029Z,6.6
2016-11-09T18:31:24.163Z,6.61
2016-11-09T18:40:16.918Z,6.64
2016-11-09T18:42:44.963Z,6.67
2016-11-09T18:44:14.310Z,6.67
2016-11-09T18:45:28.266Z,6.69
2016-11-09T18:47:11.667Z,6.74
2016-11-09T18:49:24.655Z,6.76
2016-11-09T19:03:16.213Z,6.78
2016-11-09T19:05:44.032Z,6.8
2016-11-09T19:10:25.001Z,6.86
2016-11-09T19:12:52.947Z,6.89
2016-11-09T19:18:33.952Z,7.05
2016-11-09T19:20:17.752Z,7.07
2016-11-09T19:21:46.188Z,7.06
2016-11-09T19:23:00.015Z,7.08
2016-11-09T19:24:14.187Z,7.09
2016-11-09T19:25:28.864Z,7.09
2016-11-09T19:26:57.616Z,7.09
2016-11-09T19:28:26.395Z,7.08
2016-11-09T19:30:24.775Z,7.05
2016-11-09T19:31:53.844Z,7.04
2016-11-09T19:33:37.559Z,7.05
2016-11-09T19:35:21.014Z,7.03
2016-11-09T19:37:34.272Z,7.03
2016-11-09T19:38:48.635Z,7.05
2016-11-09T19:40:17.075Z,7.08
2016-11-09T19:41:30.922Z,7.08
2016-11-09T19:47:11.334Z,6.98
2016-11-09T19:48:54.767Z,6.97
2016-11-09T19:56:04.176Z,6.9
2016-11-09T19:57:32.870Z,6.9
2016-11-09T19:59:01.879Z,6.89
2016-11-09T20:02:14.632Z,6.8
2016-11-09T20:03:43.768Z,6.79
2016-11-09T20:04:57.602Z,6.76
2016-11-09T20:06:11.871Z,6.74
2016-11-09T20:10:09.072Z,6.66
2016-11-09T20:11:23.723Z,6.65
2016-11-09T20:15:06.423Z,6.49
2016-11-09T20:16:21.107Z,6.48
2016-11-09T20:17:35.483Z,6.48
2016-11-09T20:19:33.895Z,6.44
2016-11-09T20:23:16.051Z,6.3
2016-11-09T20:24:45.104Z,6.27
2016-11-09T20:25:59.040Z,6.26
2016-11-09T20:27:28.129Z,6.29
2016-11-09T20:28:41.862Z,6.3
2016-11-09T20:29:55.782Z,6.31
2016-11-09T20:31:09.967Z,6.29
2016-11-09T20:32:23.786Z,6.24
2016-11-09T20:34:37.045Z,6.16
2016-11-09T20:36:05.745Z,6.12
2016-11-09T20:37:49.282Z,6.04
2016-11-09T20:39:05.948Z,5.99
2016-11-09T20:40:19.834Z,5.95
2016-11-09T20:41:34.654Z,5.9
2016-11-09T20:46:15.733Z,5.77
2016-11-09T20:48:14.108Z,5.8
2016-11-09T20:51:56.000Z,5.85
2016-11-09T20:57:21.551Z,5.8
2016-11-09T20:58:35.773Z,5.75
2016-11-09T21:00:19.238Z,5.67
2016-11-09T21:04:02.194Z,5.53
2016-11-09T21:08:43.223Z,5.52
2016-11-09T21:10:56.163Z,5.52
2016-11-09T21:13:09.456Z,5.55
2016-11-09T21:16:51.415Z,5.6
2016-11-09T21:20:33.616Z,5.61
2016-11-09T21:23:47.117Z,5.55
2016-11-09T21:27:29.120Z,5.66
2016-11-09T21:28:58.616Z,5.73
2016-11-09T21:30:27.599Z,5.79
2016-11-09T21:32:55.332Z,5.83
2016-11-09T21:34:09.856Z,5.86
2016-11-09T21:35:23.767Z,5.89
2016-11-09T21:44:16.250Z,5.97
2016-11-09T21:49:42.039Z,6.24
2016-11-09T21:53:09.509Z,6.23
2016-11-09T21:54:23.469Z,6.26
2016-11-09T21:57:21.653Z,6.34
2016-11-09T21:59:05.084Z,6.42
2016-11-09T22:02:02.972Z,6.48
2016-11-09T22:03:17.145Z,6.52
2016-11-09T22:04:31.501Z,6.55
2016-11-09T22:06:59.313Z,6.56
2016-11-09T22:08:13.449Z,6.56
2016-11-09T22:09:43.677Z,6.56
2016-11-09T22:10:57.630Z,6.59
2016-11-09T22:12:26.334Z,6.65
2016-11-09T22:13:55.019Z,6.7
2016-11-09T22:15:09.516Z,6.75
2016-11-09T22:16:38.322Z,6.82
2016-11-09T22:23:18.517Z,6.94
2016-11-09T22:26:03.188Z,6.93
2016-11-09T22:27:17.151Z,6.91
2016-11-09T22:28:31.073Z,6.93
2016-11-09T22:29:45.658Z,6.94
2016-11-09T22:31:14.675Z,6.94
2016-11-09T22:32:43.149Z,6.98
2016-11-09T22:34:41.345Z,7.03
2016-11-09T22:35:55.552Z,7.06
2016-11-09T22:42:19.563Z,7.23
2016-11-09T22:44:18.087Z,7.21
2016-11-09T22:47:16.963Z,7.21
2016-11-09T22:48:31.814Z,7.2
2016-11-09T22:49:46.658Z,7.2
2016-11-09T22:51:00.668Z,7.19
2016-11-09T22:54:27.688Z,7.15
2016-11-09T22:57:40.952Z,7.19
2016-11-09T22:59:09.579Z,7.18
2016-11-09T23:01:22.567Z,7.16
2016-11-09T23:03:21.326Z,7.17
2016-11-09T23:04:35.237Z,7.17
2016-11-09T23:05:49.205Z,7.11
2016-11-09T23:07:17.830Z,7.09
2016-11-09T23:10:16.321Z,7.11
2016-11-09T23:13:43.989Z,7.08
2016-11-09T23:15:42.740Z,7.05
2016-11-09T23:18:25.342Z,7.01
2016-11-09T23:19:39.345Z,6.98
2016-11-09T23:22:51.939Z,6.94
2016-11-09T23:24:06.756Z,6.93
2016-11-09T23:26:49.753Z,6.9
2016-11-09T23:28:18.913Z,6.9
2016-11-09T23:29:33.211Z,6.91
2016-11-09T23:31:01.938Z,6.93
2016-11-09T23:32:15.938Z,6.92
2016-11-09T23:33:44.852Z,6.92
2016-11-09T23:38:41.118Z,6.83
2016-11-09T23:39:55.077Z,6.8
2016-11-09T23:41:09.588Z,6.78
2016-11-09T23:44:51.443Z,6.67
2016-11-09T23:49:04.217Z,6.6
2016-11-09T23:50:33.308Z,6.64
2016-11-09T23:51:47.399Z,6.66
2016-11-09T23:53:45.903Z,6.71
2016-11-09T23:57:28.169Z,6.75
2016-11-09T23:58:42.744Z,6.72
